sensor_id;sensor_type;location;lat;lon;timestamp;P1;durP1;ratioP1;P2;durP2;ratioP2
1479;SDS011;732;51.698;4.886;2024-01-06T00:02:38;37.97;;;18.50;;
1479;SDS011;732;51.698;4.886;2024-01-06T00:05:07;37.43;;;18.30;;
1479;SDS011;732;51.698;4.886;2024-01-06T00:07:35;36.23;;;19.20;;
1479;SDS011;732;51.698;4.886;2024-01-06T00:10:04;36.93;;;18.73;;
1479;SDS011;732;51.698;4.886;2024-01-06T00:12:35;37.93;;;19.07;;
1479;SDS011;732;51.698;4.886;2024-01-06T00:15:04;35.30;;;18.10;;
1479;SDS011;732;51.698;4.886;2024-01-06T00:17:34;37.10;;;17.50;;
1479;SDS011;732;51.698;4.886;2024-01-06T00:20:04;33.60;;;18.37;;
1479;SDS011;732;51.698;4.886;2024-01-06T00:22:35;34.00;;;17.10;;
1479;SDS011;732;51.698;4.886;2024-01-06T00:25:03;31.83;;;17.10;;
1479;SDS011;732;51.698;4.886;2024-01-06T00:27:32;33.07;;;17.63;;
1479;SDS011;732;51.698;4.886;2024-01-06T00:30:01;31.10;;;17.03;;
1479;SDS011;732;51.698;4.886;2024-01-06T00:32:30;32.00;;;17.30;;
1479;SDS011;732;51.698;4.886;2024-01-06T00:35:01;28.00;;;15.90;;
1479;SDS011;732;51.698;4.886;2024-01-06T00:37:32;29.37;;;16.33;;
1479;SDS011;732;51.698;4.886;2024-01-06T00:40:00;26.63;;;15.73;;
1479;SDS011;732;51.698;4.886;2024-01-06T00:42:30;29.50;;;16.23;;
1479;SDS011;732;51.698;4.886;2024-01-06T00:44:58;25.73;;;15.20;;
1479;SDS011;732;51.698;4.886;2024-01-06T00:47:27;25.30;;;14.80;;
1479;SDS011;732;51.698;4.886;2024-01-06T00:49:56;23.70;;;15.00;;
1479;SDS011;732;51.698;4.886;2024-01-06T00:52:25;25.63;;;14.20;;
1479;SDS011;732;51.698;4.886;2024-01-06T00:54:54;25.37;;;14.17;;
1479;SDS011;732;51.698;4.886;2024-01-06T00:57:23;24.50;;;14.23;;
1479;SDS011;732;51.698;4.886;2024-01-06T00:59:51;22.83;;;14.60;;
1479;SDS011;732;51.698;4.886;2024-01-06T01:02:20;22.30;;;12.60;;
1479;SDS011;732;51.698;4.886;2024-01-06T01:04:49;19.70;;;12.13;;
1479;SDS011;732;51.698;4.886;2024-01-06T01:07:19;19.17;;;11.70;;
1479;SDS011;732;51.698;4.886;2024-01-06T01:09:48;18.53;;;11.57;;
1479;SDS011;732;51.698;4.886;2024-01-06T01:12:17;16.50;;;10.90;;
1479;SDS011;732;51.698;4.886;2024-01-06T01:14:46;16.23;;;10.80;;
1479;SDS011;732;51.698;4.886;2024-01-06T01:17:14;18.67;;;11.07;;
1479;SDS011;732;51.698;4.886;2024-01-06T01:19:43;17.97;;;11.00;;
1479;SDS011;732;51.698;4.886;2024-01-06T01:22:12;17.83;;;11.90;;
1479;SDS011;732;51.698;4.886;2024-01-06T01:24:40;16.37;;;10.70;;
1479;SDS011;732;51.698;4.886;2024-01-06T01:27:11;17.83;;;11.07;;
1479;SDS011;732;51.698;4.886;2024-01-06T01:29:40;15.90;;;10.23;;
1479;SDS011;732;51.698;4.886;2024-01-06T01:32:08;13.77;;;9.37;;
1479;SDS011;732;51.698;4.886;2024-01-06T01:34:37;15.17;;;8.97;;
1479;SDS011;732;51.698;4.886;2024-01-06T01:37:05;17.67;;;10.63;;
1479;SDS011;732;51.698;4.886;2024-01-06T01:39:34;15.40;;;9.97;;
1479;SDS011;732;51.698;4.886;2024-01-06T01:42:03;13.40;;;9.60;;
1479;SDS011;732;51.698;4.886;2024-01-06T01:44:33;18.80;;;10.33;;
1479;SDS011;732;51.698;4.886;2024-01-06T01:47:02;14.00;;;9.10;;
1479;SDS011;732;51.698;4.886;2024-01-06T01:49:32;14.53;;;9.23;;
1479;SDS011;732;51.698;4.886;2024-01-06T01:52:01;13.47;;;9.23;;
1479;SDS011;732;51.698;4.886;2024-01-06T01:54:29;16.43;;;10.47;;
1479;SDS011;732;51.698;4.886;2024-01-06T01:56:58;13.63;;;9.60;;
1479;SDS011;732;51.698;4.886;2024-01-06T01:59:26;13.90;;;8.50;;
1479;SDS011;732;51.698;4.886;2024-01-06T02:01:56;14.07;;;9.43;;
1479;SDS011;732;51.698;4.886;2024-01-06T02:04:25;15.30;;;10.47;;
1479;SDS011;732;51.698;4.886;2024-01-06T02:06:54;16.60;;;10.03;;
1479;SDS011;732;51.698;4.886;2024-01-06T02:09:22;19.30;;;12.30;;
1479;SDS011;732;51.698;4.886;2024-01-06T02:11:53;18.73;;;11.10;;
1479;SDS011;732;51.698;4.886;2024-01-06T02:14:22;18.33;;;11.90;;
1479;SDS011;732;51.698;4.886;2024-01-06T02:16:50;18.10;;;11.50;;
1479;SDS011;732;51.698;4.886;2024-01-06T02:19:20;18.40;;;11.67;;
1479;SDS011;732;51.698;4.886;2024-01-06T02:21:51;14.60;;;9.70;;
1479;SDS011;732;51.698;4.886;2024-01-06T02:24:20;15.20;;;9.40;;
1479;SDS011;732;51.698;4.886;2024-01-06T02:26:49;14.00;;;8.90;;
1479;SDS011;732;51.698;4.886;2024-01-06T02:29:17;17.13;;;10.10;;
1479;SDS011;732;51.698;4.886;2024-01-06T02:31:46;13.97;;;9.93;;
1479;SDS011;732;51.698;4.886;2024-01-06T02:34:14;15.67;;;10.33;;
1479;SDS011;732;51.698;4.886;2024-01-06T02:36:43;13.73;;;9.20;;
1479;SDS011;732;51.698;4.886;2024-01-06T02:39:13;15.83;;;9.63;;
1479;SDS011;732;51.698;4.886;2024-01-06T02:41:41;11.90;;;8.40;;
1479;SDS011;732;51.698;4.886;2024-01-06T02:44:09;14.80;;;9.37;;
1479;SDS011;732;51.698;4.886;2024-01-06T02:46:40;14.53;;;9.23;;
1479;SDS011;732;51.698;4.886;2024-01-06T02:49:08;12.37;;;8.40;;
1479;SDS011;732;51.698;4.886;2024-01-06T02:51:37;14.17;;;8.37;;
1479;SDS011;732;51.698;4.886;2024-01-06T02:54:05;11.47;;;7.60;;
1479;SDS011;732;51.698;4.886;2024-01-06T02:56:35;13.90;;;8.40;;
1479;SDS011;732;51.698;4.886;2024-01-06T02:59:04;12.00;;;8.03;;
1479;SDS011;732;51.698;4.886;2024-01-06T03:01:33;12.07;;;8.80;;
1479;SDS011;732;51.698;4.886;2024-01-06T03:04:01;14.43;;;8.57;;
1479;SDS011;732;51.698;4.886;2024-01-06T03:06:31;12.10;;;8.37;;
1479;SDS011;732;51.698;4.886;2024-01-06T03:08:59;14.33;;;8.57;;
1479;SDS011;732;51.698;4.886;2024-01-06T03:11:28;12.30;;;8.17;;
1479;SDS011;732;51.698;4.886;2024-01-06T03:13:58;16.83;;;8.57;;
1479;SDS011;732;51.698;4.886;2024-01-06T03:16:26;18.00;;;8.37;;
1479;SDS011;732;51.698;4.886;2024-01-06T03:18:54;12.10;;;8.30;;
1479;SDS011;732;51.698;4.886;2024-01-06T03:21:23;16.00;;;8.87;;
1479;SDS011;732;51.698;4.886;2024-01-06T03:23:53;14.97;;;9.27;;
1479;SDS011;732;51.698;4.886;2024-01-06T03:26:22;12.93;;;8.60;;
1479;SDS011;732;51.698;4.886;2024-01-06T03:28:50;13.90;;;9.40;;
1479;SDS011;732;51.698;4.886;2024-01-06T03:31:20;17.80;;;9.27;;
1479;SDS011;732;51.698;4.886;2024-01-06T03:33:49;17.53;;;9.60;;
1479;SDS011;732;51.698;4.886;2024-01-06T03:36:20;17.40;;;10.00;;
1479;SDS011;732;51.698;4.886;2024-01-06T03:38:48;17.30;;;10.03;;
1479;SDS011;732;51.698;4.886;2024-01-06T03:41:17;17.27;;;9.60;;
1479;SDS011;732;51.698;4.886;2024-01-06T03:43:45;16.33;;;8.70;;
1479;SDS011;732;51.698;4.886;2024-01-06T03:46:14;16.10;;;8.20;;
1479;SDS011;732;51.698;4.886;2024-01-06T03:48:43;13.87;;;8.40;;
1479;SDS011;732;51.698;4.886;2024-01-06T03:51:12;13.43;;;7.40;;
1479;SDS011;732;51.698;4.886;2024-01-06T03:53:41;15.03;;;8.07;;
1479;SDS011;732;51.698;4.886;2024-01-06T03:56:09;13.20;;;8.27;;
1479;SDS011;732;51.698;4.886;2024-01-06T03:58:40;13.37;;;9.23;;
1479;SDS011;732;51.698;4.886;2024-01-06T04:01:08;19.53;;;10.93;;
1479;SDS011;732;51.698;4.886;2024-01-06T04:03:38;19.60;;;11.53;;
1479;SDS011;732;51.698;4.886;2024-01-06T04:06:08;21.67;;;12.37;;
1479;SDS011;732;51.698;4.886;2024-01-06T04:08:38;20.97;;;12.90;;
1479;SDS011;732;51.698;4.886;2024-01-06T04:11:07;18.93;;;11.60;;
1479;SDS011;732;51.698;4.886;2024-01-06T04:13:36;20.10;;;12.20;;
1479;SDS011;732;51.698;4.886;2024-01-06T04:16:05;21.13;;;13.03;;
1479;SDS011;732;51.698;4.886;2024-01-06T04:18:34;18.37;;;11.60;;
1479;SDS011;732;51.698;4.886;2024-01-06T04:21:03;16.40;;;9.63;;
1479;SDS011;732;51.698;4.886;2024-01-06T04:23:33;16.80;;;10.27;;
1479;SDS011;732;51.698;4.886;2024-01-06T04:26:02;14.80;;;10.73;;
1479;SDS011;732;51.698;4.886;2024-01-06T04:28:31;18.07;;;9.93;;
1479;SDS011;732;51.698;4.886;2024-01-06T04:30:59;14.63;;;10.40;;
1479;SDS011;732;51.698;4.886;2024-01-06T04:33:28;14.57;;;9.50;;
1479;SDS011;732;51.698;4.886;2024-01-06T04:35:57;18.80;;;10.87;;
1479;SDS011;732;51.698;4.886;2024-01-06T04:38:28;15.63;;;9.13;;
1479;SDS011;732;51.698;4.886;2024-01-06T04:40:58;13.97;;;9.90;;
1479;SDS011;732;51.698;4.886;2024-01-06T04:43:26;14.97;;;9.93;;
1479;SDS011;732;51.698;4.886;2024-01-06T04:45:55;16.50;;;9.83;;
1479;SDS011;732;51.698;4.886;2024-01-06T04:48:24;17.57;;;11.27;;
1479;SDS011;732;51.698;4.886;2024-01-06T04:50:53;15.33;;;9.97;;
1479;SDS011;732;51.698;4.886;2024-01-06T04:53:21;15.10;;;9.77;;
1479;SDS011;732;51.698;4.886;2024-01-06T04:55:50;15.77;;;10.53;;
1479;SDS011;732;51.698;4.886;2024-01-06T04:58:20;15.80;;;10.00;;
1479;SDS011;732;51.698;4.886;2024-01-06T05:00:48;16.27;;;10.00;;
1479;SDS011;732;51.698;4.886;2024-01-06T05:03:18;15.70;;;9.90;;
1479;SDS011;732;51.698;4.886;2024-01-06T05:05:47;12.20;;;8.80;;
1479;SDS011;732;51.698;4.886;2024-01-06T05:08:15;14.10;;;6.67;;
1479;SDS011;732;51.698;4.886;2024-01-06T05:10:44;12.60;;;7.53;;
1479;SDS011;732;51.698;4.886;2024-01-06T05:13:15;12.20;;;7.87;;
1479;SDS011;732;51.698;4.886;2024-01-06T05:15:46;10.60;;;7.70;;
1479;SDS011;732;51.698;4.886;2024-01-06T05:18:14;10.10;;;7.20;;
1479;SDS011;732;51.698;4.886;2024-01-06T05:20:43;13.80;;;8.40;;
1479;SDS011;732;51.698;4.886;2024-01-06T05:23:12;12.10;;;7.73;;
1479;SDS011;732;51.698;4.886;2024-01-06T05:25:40;10.03;;;7.20;;
1479;SDS011;732;51.698;4.886;2024-01-06T05:28:09;10.47;;;7.50;;
1479;SDS011;732;51.698;4.886;2024-01-06T05:30:37;13.87;;;7.83;;
1479;SDS011;732;51.698;4.886;2024-01-06T05:33:08;11.20;;;7.70;;
1479;SDS011;732;51.698;4.886;2024-01-06T05:35:40;11.33;;;8.30;;
1479;SDS011;732;51.698;4.886;2024-01-06T05:38:09;16.80;;;9.27;;
1479;SDS011;732;51.698;4.886;2024-01-06T05:40:37;13.47;;;8.40;;
1479;SDS011;732;51.698;4.886;2024-01-06T05:43:06;14.43;;;9.23;;
1479;SDS011;732;51.698;4.886;2024-01-06T05:45:34;14.17;;;9.27;;
1479;SDS011;732;51.698;4.886;2024-01-06T05:48:04;15.50;;;8.37;;
1479;SDS011;732;51.698;4.886;2024-01-06T05:50:37;13.20;;;8.43;;
1479;SDS011;732;51.698;4.886;2024-01-06T05:53:07;13.00;;;8.87;;
1479;SDS011;732;51.698;4.886;2024-01-06T05:55:37;16.93;;;8.67;;
1479;SDS011;732;51.698;4.886;2024-01-06T05:58:06;14.43;;;8.10;;
1479;SDS011;732;51.698;4.886;2024-01-06T06:00:34;17.60;;;9.23;;
1479;SDS011;732;51.698;4.886;2024-01-06T06:03:03;12.80;;;8.43;;
1479;SDS011;732;51.698;4.886;2024-01-06T06:05:35;20.23;;;8.97;;
1479;SDS011;732;51.698;4.886;2024-01-06T06:08:04;15.07;;;8.90;;
1479;SDS011;732;51.698;4.886;2024-01-06T06:10:33;13.53;;;8.20;;
1479;SDS011;732;51.698;4.886;2024-01-06T06:13:18;13.17;;;8.20;;
1479;SDS011;732;51.698;4.886;2024-01-06T06:15:46;17.13;;;8.90;;
1479;SDS011;732;51.698;4.886;2024-01-06T06:18:15;11.87;;;7.63;;
1479;SDS011;732;51.698;4.886;2024-01-06T06:20:45;13.77;;;7.93;;
1479;SDS011;732;51.698;4.886;2024-01-06T06:23:14;14.13;;;7.67;;
1479;SDS011;732;51.698;4.886;2024-01-06T06:25:42;24.60;;;8.33;;
1479;SDS011;732;51.698;4.886;2024-01-06T06:28:11;13.07;;;8.00;;
1479;SDS011;732;51.698;4.886;2024-01-06T06:30:39;14.90;;;8.80;;
1479;SDS011;732;51.698;4.886;2024-01-06T06:33:08;18.60;;;9.67;;
1479;SDS011;732;51.698;4.886;2024-01-06T06:35:36;13.60;;;8.47;;
1479;SDS011;732;51.698;4.886;2024-01-06T06:38:06;16.30;;;8.40;;
1479;SDS011;732;51.698;4.886;2024-01-06T06:40:34;14.97;;;9.13;;
1479;SDS011;732;51.698;4.886;2024-01-06T06:43:03;16.30;;;8.97;;
1479;SDS011;732;51.698;4.886;2024-01-06T06:45:32;14.60;;;7.80;;
1479;SDS011;732;51.698;4.886;2024-01-06T06:48:01;13.70;;;8.60;;
1479;SDS011;732;51.698;4.886;2024-01-06T06:50:29;11.93;;;7.50;;
1479;SDS011;732;51.698;4.886;2024-01-06T06:52:58;12.03;;;7.50;;
1479;SDS011;732;51.698;4.886;2024-01-06T06:55:28;11.90;;;7.00;;
1479;SDS011;732;51.698;4.886;2024-01-06T06:57:57;10.60;;;6.70;;
1479;SDS011;732;51.698;4.886;2024-01-06T07:00:25;13.60;;;6.87;;
1479;SDS011;732;51.698;4.886;2024-01-06T07:02:54;13.37;;;6.77;;
1479;SDS011;732;51.698;4.886;2024-01-06T07:05:22;13.67;;;8.27;;
1479;SDS011;732;51.698;4.886;2024-01-06T07:07:52;16.83;;;7.57;;
1479;SDS011;732;51.698;4.886;2024-01-06T07:10:23;9.63;;;7.70;;
1479;SDS011;732;51.698;4.886;2024-01-06T07:12:52;11.70;;;7.43;;
1479;SDS011;732;51.698;4.886;2024-01-06T07:15:21;12.57;;;6.90;;
1479;SDS011;732;51.698;4.886;2024-01-06T07:17:49;11.47;;;7.80;;
1479;SDS011;732;51.698;4.886;2024-01-06T07:20:18;9.83;;;7.13;;
1479;SDS011;732;51.698;4.886;2024-01-06T07:22:46;11.53;;;6.83;;
1479;SDS011;732;51.698;4.886;2024-01-06T07:25:15;11.83;;;7.00;;
1479;SDS011;732;51.698;4.886;2024-01-06T07:27:43;11.80;;;7.40;;
1479;SDS011;732;51.698;4.886;2024-01-06T07:30:13;25.03;;;7.80;;
1479;SDS011;732;51.698;4.886;2024-01-06T07:32:42;11.10;;;6.97;;
1479;SDS011;732;51.698;4.886;2024-01-06T07:35:11;13.40;;;7.33;;
1479;SDS011;732;51.698;4.886;2024-01-06T07:37:40;14.20;;;7.70;;
1479;SDS011;732;51.698;4.886;2024-01-06T07:40:09;14.30;;;8.50;;
1479;SDS011;732;51.698;4.886;2024-01-06T07:42:39;12.03;;;8.20;;
1479;SDS011;732;51.698;4.886;2024-01-06T07:45:08;13.20;;;8.50;;
1479;SDS011;732;51.698;4.886;2024-01-06T07:47:38;15.93;;;9.00;;
1479;SDS011;732;51.698;4.886;2024-01-06T07:50:07;14.37;;;8.43;;
1479;SDS011;732;51.698;4.886;2024-01-06T07:52:37;15.43;;;8.27;;
1479;SDS011;732;51.698;4.886;2024-01-06T07:55:05;16.20;;;9.60;;
1479;SDS011;732;51.698;4.886;2024-01-06T07:57:35;18.50;;;9.93;;
1479;SDS011;732;51.698;4.886;2024-01-06T08:00:04;16.20;;;10.40;;
1479;SDS011;732;51.698;4.886;2024-01-06T08:02:41;16.97;;;9.40;;
1479;SDS011;732;51.698;4.886;2024-01-06T08:05:10;16.90;;;9.90;;
1479;SDS011;732;51.698;4.886;2024-01-06T08:07:38;15.33;;;9.53;;
1479;SDS011;732;51.698;4.886;2024-01-06T08:10:07;16.80;;;8.93;;
1479;SDS011;732;51.698;4.886;2024-01-06T08:12:36;14.77;;;9.13;;
1479;SDS011;732;51.698;4.886;2024-01-06T08:15:05;16.27;;;10.07;;
1479;SDS011;732;51.698;4.886;2024-01-06T08:17:35;13.63;;;9.53;;
1479;SDS011;732;51.698;4.886;2024-01-06T08:20:07;18.70;;;10.20;;
1479;SDS011;732;51.698;4.886;2024-01-06T08:22:36;13.40;;;9.13;;
1479;SDS011;732;51.698;4.886;2024-01-06T08:25:05;15.10;;;9.70;;
1479;SDS011;732;51.698;4.886;2024-01-06T08:27:34;14.10;;;9.60;;
1479;SDS011;732;51.698;4.886;2024-01-06T08:30:03;15.83;;;9.30;;
1479;SDS011;732;51.698;4.886;2024-01-06T08:32:33;15.33;;;9.10;;
1479;SDS011;732;51.698;4.886;2024-01-06T08:35:02;13.10;;;8.73;;
1479;SDS011;732;51.698;4.886;2024-01-06T08:37:33;16.90;;;8.50;;
1479;SDS011;732;51.698;4.886;2024-01-06T08:40:01;14.70;;;8.73;;
1479;SDS011;732;51.698;4.886;2024-01-06T08:42:31;17.40;;;9.10;;
1479;SDS011;732;51.698;4.886;2024-01-06T08:44:59;13.10;;;8.77;;
1479;SDS011;732;51.698;4.886;2024-01-06T08:47:28;15.00;;;9.00;;
1479;SDS011;732;51.698;4.886;2024-01-06T08:49:57;16.50;;;9.20;;
1479;SDS011;732;51.698;4.886;2024-01-06T08:52:26;13.07;;;8.63;;
1479;SDS011;732;51.698;4.886;2024-01-06T08:54:55;12.50;;;7.90;;
1479;SDS011;732;51.698;4.886;2024-01-06T08:57:24;15.57;;;8.30;;
1479;SDS011;732;51.698;4.886;2024-01-06T08:59:52;11.00;;;8.40;;
1479;SDS011;732;51.698;4.886;2024-01-06T09:02:21;13.63;;;8.87;;
1479;SDS011;732;51.698;4.886;2024-01-06T09:04:49;13.00;;;8.87;;
1479;SDS011;732;51.698;4.886;2024-01-06T09:07:18;15.00;;;9.37;;
1479;SDS011;732;51.698;4.886;2024-01-06T09:09:46;20.03;;;10.53;;
1479;SDS011;732;51.698;4.886;2024-01-06T09:12:16;12.57;;;9.67;;
1479;SDS011;732;51.698;4.886;2024-01-06T09:14:45;17.27;;;10.30;;
1479;SDS011;732;51.698;4.886;2024-01-06T09:17:14;14.00;;;9.60;;
1479;SDS011;732;51.698;4.886;2024-01-06T09:19:42;15.13;;;10.33;;
1479;SDS011;732;51.698;4.886;2024-01-06T09:22:11;21.97;;;9.93;;
1479;SDS011;732;51.698;4.886;2024-01-06T09:24:39;15.63;;;9.50;;
1479;SDS011;732;51.698;4.886;2024-01-06T09:27:08;26.30;;;12.23;;
1479;SDS011;732;51.698;4.886;2024-01-06T09:29:38;21.40;;;11.17;;
1479;SDS011;732;51.698;4.886;2024-01-06T09:32:06;14.67;;;9.97;;
1479;SDS011;732;51.698;4.886;2024-01-06T09:34:35;16.97;;;10.90;;
1479;SDS011;732;51.698;4.886;2024-01-06T09:37:05;23.20;;;10.43;;
1479;SDS011;732;51.698;4.886;2024-01-06T09:39:34;16.17;;;9.50;;
1479;SDS011;732;51.698;4.886;2024-01-06T09:42:02;23.30;;;11.07;;
1479;SDS011;732;51.698;4.886;2024-01-06T09:44:32;15.97;;;9.53;;
1479;SDS011;732;51.698;4.886;2024-01-06T09:47:01;17.03;;;10.10;;
1479;SDS011;732;51.698;4.886;2024-01-06T09:49:32;17.73;;;11.33;;
1479;SDS011;732;51.698;4.886;2024-01-06T09:52:05;16.83;;;10.30;;
1479;SDS011;732;51.698;4.886;2024-01-06T09:54:43;16.30;;;11.37;;
1479;SDS011;732;51.698;4.886;2024-01-06T09:57:19;20.03;;;10.27;;
1479;SDS011;732;51.698;4.886;2024-01-06T09:59:48;15.93;;;10.57;;
1479;SDS011;732;51.698;4.886;2024-01-06T10:02:18;21.63;;;11.47;;
1479;SDS011;732;51.698;4.886;2024-01-06T10:04:49;15.93;;;10.43;;
1479;SDS011;732;51.698;4.886;2024-01-06T10:07:18;13.63;;;9.77;;
1479;SDS011;732;51.698;4.886;2024-01-06T10:09:46;14.07;;;8.77;;
1479;SDS011;732;51.698;4.886;2024-01-06T10:12:14;18.90;;;11.27;;
1479;SDS011;732;51.698;4.886;2024-01-06T10:14:43;15.57;;;10.30;;
1479;SDS011;732;51.698;4.886;2024-01-06T10:17:12;17.33;;;10.20;;
1479;SDS011;732;51.698;4.886;2024-01-06T10:19:42;14.30;;;10.27;;
1479;SDS011;732;51.698;4.886;2024-01-06T10:22:13;19.70;;;9.83;;
1479;SDS011;732;51.698;4.886;2024-01-06T10:24:41;15.50;;;9.57;;
1479;SDS011;732;51.698;4.886;2024-01-06T10:27:10;14.50;;;9.30;;
1479;SDS011;732;51.698;4.886;2024-01-06T10:29:38;16.80;;;9.60;;
1479;SDS011;732;51.698;4.886;2024-01-06T10:32:07;13.23;;;8.50;;
1479;SDS011;732;51.698;4.886;2024-01-06T10:34:36;11.90;;;8.40;;
1479;SDS011;732;51.698;4.886;2024-01-06T10:37:07;13.47;;;8.87;;
1479;SDS011;732;51.698;4.886;2024-01-06T10:39:35;15.67;;;8.90;;
1479;SDS011;732;51.698;4.886;2024-01-06T10:42:04;11.43;;;8.20;;
1479;SDS011;732;51.698;4.886;2024-01-06T10:44:35;8.23;;;6.07;;
1479;SDS011;732;51.698;4.886;2024-01-06T10:47:08;11.33;;;6.47;;
1479;SDS011;732;51.698;4.886;2024-01-06T10:49:38;8.70;;;6.83;;
1479;SDS011;732;51.698;4.886;2024-01-06T10:52:08;7.33;;;6.50;;
1479;SDS011;732;51.698;4.886;2024-01-06T10:54:37;9.60;;;5.37;;
1479;SDS011;732;51.698;4.886;2024-01-06T10:57:07;8.43;;;5.97;;
1479;SDS011;732;51.698;4.886;2024-01-06T10:59:36;6.87;;;6.17;;
1479;SDS011;732;51.698;4.886;2024-01-06T11:02:05;10.13;;;6.10;;
1479;SDS011;732;51.698;4.886;2024-01-06T11:04:37;7.73;;;6.00;;
1479;SDS011;732;51.698;4.886;2024-01-06T11:07:09;8.70;;;5.50;;
1479;SDS011;732;51.698;4.886;2024-01-06T11:09:39;8.33;;;5.90;;
1479;SDS011;732;51.698;4.886;2024-01-06T11:12:11;9.60;;;6.23;;
1479;SDS011;732;51.698;4.886;2024-01-06T11:14:40;6.03;;;4.73;;
1479;SDS011;732;51.698;4.886;2024-01-06T11:17:08;7.80;;;4.90;;
1479;SDS011;732;51.698;4.886;2024-01-06T11:19:43;8.30;;;6.00;;
1479;SDS011;732;51.698;4.886;2024-01-06T11:22:23;9.97;;;6.20;;
1479;SDS011;732;51.698;4.886;2024-01-06T11:24:55;10.30;;;6.30;;
1479;SDS011;732;51.698;4.886;2024-01-06T11:27:31;13.37;;;7.27;;
1479;SDS011;732;51.698;4.886;2024-01-06T11:30:00;10.40;;;7.77;;
1479;SDS011;732;51.698;4.886;2024-01-06T11:32:33;10.10;;;7.30;;
1479;SDS011;732;51.698;4.886;2024-01-06T11:35:05;10.70;;;7.60;;
1479;SDS011;732;51.698;4.886;2024-01-06T11:37:51;9.60;;;7.53;;
1479;SDS011;732;51.698;4.886;2024-01-06T11:40:31;10.73;;;7.50;;
1479;SDS011;732;51.698;4.886;2024-01-06T11:43:02;12.43;;;7.77;;
1479;SDS011;732;51.698;4.886;2024-01-06T11:45:33;10.00;;;7.63;;
1479;SDS011;732;51.698;4.886;2024-01-06T11:48:04;9.50;;;6.57;;
1479;SDS011;732;51.698;4.886;2024-01-06T11:50:35;9.93;;;6.50;;
1479;SDS011;732;51.698;4.886;2024-01-06T11:53:06;9.63;;;6.57;;
1479;SDS011;732;51.698;4.886;2024-01-06T11:55:38;8.63;;;6.60;;
1479;SDS011;732;51.698;4.886;2024-01-06T11:58:06;9.93;;;7.30;;
1479;SDS011;732;51.698;4.886;2024-01-06T12:00:35;10.60;;;6.63;;
1479;SDS011;732;51.698;4.886;2024-01-06T12:03:06;7.17;;;5.87;;
1479;SDS011;732;51.698;4.886;2024-01-06T12:05:35;8.53;;;5.60;;
1479;SDS011;732;51.698;4.886;2024-01-06T12:08:05;9.67;;;6.40;;
1479;SDS011;732;51.698;4.886;2024-01-06T12:10:35;11.30;;;6.80;;
1479;SDS011;732;51.698;4.886;2024-01-06T12:13:04;8.57;;;6.00;;
1479;SDS011;732;51.698;4.886;2024-01-06T12:15:36;7.73;;;6.23;;
1479;SDS011;732;51.698;4.886;2024-01-06T12:18:06;8.90;;;6.70;;
1479;SDS011;732;51.698;4.886;2024-01-06T12:20:35;8.13;;;6.23;;
1479;SDS011;732;51.698;4.886;2024-01-06T12:23:05;12.47;;;7.57;;
1479;SDS011;732;51.698;4.886;2024-01-06T12:25:34;11.27;;;7.10;;
1479;SDS011;732;51.698;4.886;2024-01-06T12:28:06;12.33;;;8.50;;
1479;SDS011;732;51.698;4.886;2024-01-06T12:30:35;11.63;;;7.17;;
1479;SDS011;732;51.698;4.886;2024-01-06T12:33:06;10.40;;;7.70;;
1479;SDS011;732;51.698;4.886;2024-01-06T12:35:35;13.00;;;8.47;;
1479;SDS011;732;51.698;4.886;2024-01-06T12:38:04;12.17;;;8.40;;
1479;SDS011;732;51.698;4.886;2024-01-06T12:40:35;10.80;;;7.80;;
1479;SDS011;732;51.698;4.886;2024-01-06T12:43:05;12.17;;;8.23;;
1479;SDS011;732;51.698;4.886;2024-01-06T12:45:34;12.40;;;8.73;;
1479;SDS011;732;51.698;4.886;2024-01-06T12:48:02;13.40;;;9.57;;
1479;SDS011;732;51.698;4.886;2024-01-06T12:50:32;11.73;;;9.00;;
1479;SDS011;732;51.698;4.886;2024-01-06T12:53:00;14.00;;;9.40;;
1479;SDS011;732;51.698;4.886;2024-01-06T12:55:30;13.37;;;8.43;;
1479;SDS011;732;51.698;4.886;2024-01-06T12:57:59;16.30;;;8.70;;
1479;SDS011;732;51.698;4.886;2024-01-06T13:00:30;15.60;;;9.90;;
1479;SDS011;732;51.698;4.886;2024-01-06T13:03:03;15.10;;;8.93;;
1479;SDS011;732;51.698;4.886;2024-01-06T13:05:32;16.33;;;9.90;;
1479;SDS011;732;51.698;4.886;2024-01-06T13:08:01;13.57;;;9.63;;
1479;SDS011;732;51.698;4.886;2024-01-06T13:10:32;13.57;;;9.53;;
1479;SDS011;732;51.698;4.886;2024-01-06T13:13:02;16.03;;;9.87;;
1479;SDS011;732;51.698;4.886;2024-01-06T13:15:32;16.40;;;10.40;;
1479;SDS011;732;51.698;4.886;2024-01-06T13:18:01;14.77;;;10.70;;
1479;SDS011;732;51.698;4.886;2024-01-06T13:20:30;21.80;;;9.90;;
1479;SDS011;732;51.698;4.886;2024-01-06T13:22:58;18.33;;;10.47;;
1479;SDS011;732;51.698;4.886;2024-01-06T13:25:27;13.47;;;9.10;;
1479;SDS011;732;51.698;4.886;2024-01-06T13:27:57;18.73;;;9.87;;
1479;SDS011;732;51.698;4.886;2024-01-06T13:30:26;13.30;;;9.50;;
1479;SDS011;732;51.698;4.886;2024-01-06T13:32:55;17.70;;;9.90;;
1479;SDS011;732;51.698;4.886;2024-01-06T13:35:25;13.30;;;9.10;;
1479;SDS011;732;51.698;4.886;2024-01-06T13:37:55;12.33;;;8.70;;
1479;SDS011;732;51.698;4.886;2024-01-06T13:40:24;11.37;;;9.33;;
1479;SDS011;732;51.698;4.886;2024-01-06T13:42:52;17.97;;;9.27;;
1479;SDS011;732;51.698;4.886;2024-01-06T13:45:22;12.27;;;8.20;;
1479;SDS011;732;51.698;4.886;2024-01-06T13:47:51;14.00;;;8.70;;
1479;SDS011;732;51.698;4.886;2024-01-06T13:50:20;12.10;;;7.50;;
1479;SDS011;732;51.698;4.886;2024-01-06T13:52:48;10.23;;;7.63;;
1479;SDS011;732;51.698;4.886;2024-01-06T13:55:17;10.23;;;7.23;;
1479;SDS011;732;51.698;4.886;2024-01-06T13:57:46;12.03;;;6.93;;
1479;SDS011;732;51.698;4.886;2024-01-06T14:00:15;10.27;;;6.73;;
1479;SDS011;732;51.698;4.886;2024-01-06T14:02:48;9.80;;;6.47;;
1479;SDS011;732;51.698;4.886;2024-01-06T14:05:16;7.90;;;6.03;;
1479;SDS011;732;51.698;4.886;2024-01-06T14:07:46;10.83;;;6.77;;
1479;SDS011;732;51.698;4.886;2024-01-06T14:10:17;10.00;;;6.80;;
1479;SDS011;732;51.698;4.886;2024-01-06T14:12:46;9.57;;;7.20;;
1479;SDS011;732;51.698;4.886;2024-01-06T14:15:15;11.07;;;7.60;;
1479;SDS011;732;51.698;4.886;2024-01-06T14:17:44;11.00;;;6.37;;
1479;SDS011;732;51.698;4.886;2024-01-06T14:20:18;8.63;;;6.63;;
1479;SDS011;732;51.698;4.886;2024-01-06T14:22:47;7.00;;;5.80;;
1479;SDS011;732;51.698;4.886;2024-01-06T14:25:16;8.90;;;6.20;;
1479;SDS011;732;51.698;4.886;2024-01-06T14:27:45;9.30;;;7.00;;
1479;SDS011;732;51.698;4.886;2024-01-06T14:30:14;10.63;;;7.47;;
1479;SDS011;732;51.698;4.886;2024-01-06T14:32:44;12.40;;;6.80;;
1479;SDS011;732;51.698;4.886;2024-01-06T14:35:13;8.33;;;6.40;;
1479;SDS011;732;51.698;4.886;2024-01-06T14:37:44;9.33;;;7.00;;
1479;SDS011;732;51.698;4.886;2024-01-06T14:40:13;7.27;;;5.90;;
1479;SDS011;732;51.698;4.886;2024-01-06T14:42:41;7.37;;;5.77;;
1479;SDS011;732;51.698;4.886;2024-01-06T14:45:10;8.03;;;5.87;;
1479;SDS011;732;51.698;4.886;2024-01-06T14:47:40;8.43;;;5.97;;
1479;SDS011;732;51.698;4.886;2024-01-06T14:50:09;9.77;;;6.43;;
1479;SDS011;732;51.698;4.886;2024-01-06T14:52:38;8.27;;;6.30;;
1479;SDS011;732;51.698;4.886;2024-01-06T14:55:08;9.33;;;6.10;;
1479;SDS011;732;51.698;4.886;2024-01-06T14:57:38;11.67;;;6.67;;
1479;SDS011;732;51.698;4.886;2024-01-06T15:00:07;10.53;;;6.60;;
1479;SDS011;732;51.698;4.886;2024-01-06T15:02:37;10.43;;;7.10;;
1479;SDS011;732;51.698;4.886;2024-01-06T15:05:06;12.40;;;7.10;;
1479;SDS011;732;51.698;4.886;2024-01-06T15:07:36;11.03;;;7.80;;
1479;SDS011;732;51.698;4.886;2024-01-06T15:10:05;10.00;;;7.90;;
1479;SDS011;732;51.698;4.886;2024-01-06T15:12:38;12.40;;;7.83;;
1479;SDS011;732;51.698;4.886;2024-01-06T15:15:07;12.20;;;8.13;;
1479;SDS011;732;51.698;4.886;2024-01-06T15:17:36;12.90;;;8.63;;
1479;SDS011;732;51.698;4.886;2024-01-06T15:20:05;11.80;;;8.23;;
1479;SDS011;732;51.698;4.886;2024-01-06T15:22:36;12.77;;;7.97;;
1479;SDS011;732;51.698;4.886;2024-01-06T15:25:08;13.70;;;8.33;;
1479;SDS011;732;51.698;4.886;2024-01-06T15:27:37;11.30;;;8.40;;